createdAt,value
2022-09-24T00:00:49.881Z,15.99
2022-09-24T00:06:28.575Z,16.01
2022-09-24T00:12:07.376Z,16.11
2022-09-24T00:14:56.250Z,16.06
2022-09-24T00:20:31.791Z,16.11
2022-09-24T00:26:28.185Z,16.15
2022-09-24T00:29:18.815Z,16.12
2022-09-24T00:34:55.801Z,16.19
2022-09-24T00:37:44.767Z,16.12
2022-09-24T00:40:36.876Z,16.11
2022-09-24T00:46:19.309Z,15.84
2022-09-24T00:49:10.598Z,15.80
2022-09-24T00:52:00.113Z,15.85
2022-09-24T00:54:51.538Z,15.85
2022-09-24T01:00:28.010Z,15.87
2022-09-24T01:03:18.623Z,15.88
2022-09-24T01:06:08.148Z,15.95
2022-09-24T01:11:46.493Z,15.80
2022-09-24T01:17:36.850Z,15.74
2022-09-24T01:23:48.757Z,15.89
2022-09-24T01:26:56.937Z,15.68
2022-09-24T01:32:46.639Z,15.53
2022-09-24T01:38:24.597Z,15.55
2022-09-24T01:41:15.360Z,15.48
2022-09-24T01:44:06.614Z,15.48
2022-09-24T01:46:55.384Z,15.68
2022-09-24T01:49:44.290Z,15.68
2022-09-24T01:55:26.952Z,15.41
2022-09-24T02:01:08.076Z,15.45
2022-09-24T02:06:48.117Z,15.54
2022-09-24T02:09:40.609Z,15.52
2022-09-24T02:15:14.620Z,15.42
2022-09-24T02:20:51.872Z,15.36
2022-09-24T02:26:24.197Z,15.41
2022-09-24T02:29:13.056Z,15.37
2022-09-24T02:34:52.873Z,15.42
2022-09-24T02:37:48.213Z,15.41
2022-09-24T02:43:22.338Z,15.33
2022-09-24T02:46:10.688Z,15.23
2022-09-24T02:52:01.451Z,15.19
2022-09-24T02:54:50.129Z,15.11
2022-09-24T02:57:38.681Z,15.07
2022-09-24T03:00:27.059Z,15.02
2022-09-24T03:06:00.569Z,15.09
2022-09-24T03:11:36.634Z,15.07
2022-09-24T03:17:14.362Z,15.02
2022-09-24T03:20:04.426Z,14.99
2022-09-24T03:25:41.810Z,15.08
2022-09-24T03:28:30.288Z,15.04
2022-09-24T03:34:06.896Z,15.06
2022-09-24T03:36:55.421Z,15.01
2022-09-24T03:39:44.872Z,15.01
2022-09-24T03:42:34.517Z,14.99
2022-09-24T03:45:22.782Z,14.98
2022-09-24T03:48:11.033Z,15.00
2022-09-24T03:50:59.460Z,14.98
2022-09-24T03:56:35.978Z,14.97
2022-09-24T03:59:25.203Z,14.90
2022-09-24T04:05:12.315Z,14.99
2022-09-24T04:08:01.921Z,14.89
2022-09-24T04:13:38.733Z,14.93
2022-09-24T04:19:10.537Z,14.99
2022-09-24T04:21:58.993Z,14.95
2022-09-24T04:27:35.064Z,15.07
2022-09-24T04:33:24.254Z,14.97
2022-09-24T04:38:59.106Z,14.99
2022-09-24T04:44:34.500Z,14.94
2022-09-24T04:50:07.819Z,14.78
2022-09-24T04:55:49.295Z,14.83
2022-09-24T05:01:23.847Z,14.81
2022-09-24T05:06:54.466Z,14.60
2022-09-24T05:12:35.340Z,14.67
2022-09-24T05:18:02.991Z,14.66
2022-09-24T05:23:37.040Z,14.68
2022-09-24T05:26:43.650Z,14.63
2022-09-24T05:32:21.840Z,14.56
2022-09-24T05:37:58.451Z,14.54
2022-09-24T05:43:43.726Z,14.49
2022-09-24T05:46:32.953Z,14.40
2022-09-24T05:52:05.725Z,14.54
2022-09-24T05:57:48.064Z,14.56
2022-09-24T06:03:28.183Z,14.50
2022-09-24T06:09:10.152Z,14.54
2022-09-24T06:14:45.661Z,14.54
2022-09-24T06:20:43.096Z,14.63
2022-09-24T06:23:31.520Z,14.61
2022-09-24T06:29:07.268Z,14.65
2022-09-24T06:34:42.552Z,14.66
2022-09-24T06:37:30.945Z,14.64
2022-09-24T06:40:19.243Z,14.65
2022-09-24T06:43:08.354Z,14.67
2022-09-24T06:45:58.104Z,14.69
2022-09-24T06:51:33.338Z,14.71
2022-09-24T06:57:09.902Z,14.72
2022-09-24T07:08:33.408Z,14.94
2022-09-24T07:14:23.720Z,14.91
2022-09-24T07:20:14.544Z,14.85
2022-09-24T07:23:02.568Z,14.75
2022-09-24T07:25:51.745Z,14.77
2022-09-24T07:28:40.947Z,14.67
2022-09-24T07:34:14.803Z,14.62
2022-09-24T07:39:54.831Z,14.65
2022-09-24T07:42:49.644Z,14.63
2022-09-24T07:48:28.883Z,14.77
2022-09-24T07:51:22.833Z,14.73
2022-09-24T07:56:56.810Z,14.94
2022-09-24T07:59:45.463Z,15.02
2022-09-24T08:02:34.020Z,15.36
2022-09-24T08:05:23.285Z,15.44
2022-09-24T08:10:55.246Z,15.54
2022-09-24T08:13:43.673Z,15.51
2022-09-24T08:16:31.925Z,15.42
2022-09-24T08:19:19.989Z,15.33
2022-09-24T08:22:12.016Z,15.33
2022-09-24T08:27:50.249Z,15.33
2022-09-24T08:33:27.118Z,15.41
2022-09-24T08:36:15.331Z,15.38
2022-09-24T08:42:00.787Z,15.51
2022-09-24T08:47:45.554Z,15.29
2022-09-24T08:50:35.312Z,15.17
2022-09-24T08:56:16.250Z,15.41
2022-09-24T09:04:54.250Z,15.66
2022-09-24T09:10:36.677Z,15.83
2022-09-24T09:16:18.886Z,15.82
2022-09-24T09:21:59.161Z,15.76
2022-09-24T09:24:49.843Z,15.76
2022-09-24T09:27:38.997Z,15.83
2022-09-24T09:30:28.857Z,15.76
2022-09-24T09:33:24.678Z,15.75
2022-09-24T09:41:54.886Z,15.77
2022-09-24T09:47:38.235Z,15.69
2022-09-24T09:53:24.298Z,15.71
2022-09-24T09:59:08.484Z,15.65
2022-09-24T10:04:45.777Z,15.80
2022-09-24T10:10:24.148Z,15.92
2022-09-24T10:16:00.827Z,16.06
2022-09-24T10:21:37.744Z,16.29
2022-09-24T10:27:24.450Z,16.24
2022-09-24T10:33:04.538Z,16.22
2022-09-24T10:38:38.783Z,16.08
2022-09-24T10:44:16.099Z,15.84
2022-09-24T10:50:15.943Z,15.92
2022-09-24T10:55:59.486Z,16.03
2022-09-24T11:01:52.855Z,16.09
2022-09-24T11:11:16.551Z,15.76
2022-09-24T11:20:33.961Z,16.05
2022-09-24T11:26:32.485Z,16.42
2022-09-24T11:29:37.611Z,16.52
2022-09-24T11:35:24.076Z,16.63
2022-09-24T11:41:21.273Z,16.61
2022-09-24T11:47:24.734Z,16.67
2022-09-24T11:55:59.620Z,16.52
2022-09-24T11:58:51.427Z,16.72
2022-09-24T12:04:30.920Z,16.95
2022-09-24T12:07:23.826Z,17.07
2022-09-24T12:13:18.039Z,17.27
2022-09-24T12:18:57.895Z,17.61
2022-09-24T12:24:38.475Z,17.48
2022-09-24T12:30:42.436Z,17.26
2022-09-24T12:36:38.800Z,17.25
2022-09-24T12:39:29.619Z,17.23
2022-09-24T12:42:20.921Z,17.24
2022-09-24T12:47:59.765Z,17.20
2022-09-24T12:53:43.848Z,17.20
2022-09-24T12:59:29.511Z,17.27
2022-09-24T13:02:22.022Z,17.23
2022-09-24T13:05:21.307Z,17.27
2022-09-24T13:08:27.145Z,17.30
2022-09-24T13:17:08.425Z,17.26
2022-09-24T13:25:25.026Z,17.61
2022-09-24T13:31:15.806Z,17.67
2022-09-24T13:36:58.170Z,17.65
2022-09-24T13:39:50.300Z,17.57
2022-09-24T13:48:14.271Z,17.51
2022-09-24T13:53:48.162Z,17.62
2022-09-24T14:01:57.082Z,17.60
2022-09-24T14:07:32.552Z,17.49
2022-09-24T14:13:19.167Z,17.51
2022-09-24T14:19:06.385Z,17.62
2022-09-24T14:24:50.135Z,17.43
2022-09-24T14:33:16.790Z,17.56
2022-09-24T14:36:05.750Z,17.45
2022-09-24T14:38:57.291Z,17.48
2022-09-24T14:44:37.662Z,17.27
2022-09-24T14:50:29.416Z,17.03
2022-09-24T14:53:23.598Z,17.09
2022-09-24T15:02:17.899Z,17.55
2022-09-24T15:07:47.869Z,18.19
2022-09-24T15:10:36.447Z,18.40
2022-09-24T15:13:27.075Z,18.53
2022-09-24T15:16:22.087Z,18.77
2022-09-24T15:22:02.141Z,18.63
2022-09-24T15:27:39.995Z,18.18
2022-09-24T15:33:12.922Z,17.76
2022-09-24T15:36:01.670Z,17.66
2022-09-24T15:41:32.842Z,17.51
2022-09-24T15:44:26.240Z,17.48
2022-09-24T15:47:14.352Z,17.28
2022-09-24T15:52:53.176Z,17.08
2022-09-24T15:55:41.814Z,16.88
2022-09-24T15:58:30.317Z,16.74
2022-09-24T16:01:19.705Z,16.64
2022-09-24T16:04:08.788Z,16.45
2022-09-24T16:09:57.494Z,16.27
2022-09-24T16:15:33.666Z,16.13
2022-09-24T16:21:12.420Z,15.88
2022-09-24T16:24:01.214Z,15.89
2022-09-24T16:29:38.855Z,16.00
2022-09-24T16:32:27.196Z,15.92
2022-09-24T16:35:15.333Z,15.94
2022-09-24T16:38:04.076Z,15.87
2022-09-24T16:41:00.163Z,15.83
2022-09-24T16:46:36.633Z,15.81
2022-09-24T16:52:11.948Z,15.69
2022-09-24T16:57:52.479Z,15.85
2022-09-24T17:00:45.724Z,15.77
2022-09-24T17:03:35.993Z,15.67
2022-09-24T17:06:26.140Z,15.64
2022-09-24T17:09:32.786Z,15.59
2022-09-24T17:15:10.710Z,15.50
2022-09-24T17:20:50.428Z,15.30
2022-09-24T17:23:38.518Z,15.20
2022-09-24T17:26:27.704Z,15.20
2022-09-24T17:29:26.476Z,15.17
2022-09-24T17:32:17.357Z,15.17
2022-09-24T17:38:09.393Z,14.87
2022-09-24T17:43:47.258Z,14.74
2022-09-24T17:46:38.731Z,14.70
2022-09-24T17:49:27.062Z,14.82
2022-09-24T17:52:16.559Z,14.74
2022-09-24T17:57:58.238Z,14.66
2022-09-24T18:00:46.825Z,14.55
2022-09-24T18:03:36.566Z,14.54
2022-09-24T18:09:13.827Z,14.59
2022-09-24T18:15:07.404Z,14.65
2022-09-24T18:20:51.691Z,14.66
2022-09-24T18:23:40.348Z,14.63
2022-09-24T18:26:32.282Z,14.63
2022-09-24T18:29:26.458Z,14.62
2022-09-24T18:32:19.877Z,14.57
2022-09-24T18:35:13.610Z,14.52
2022-09-24T18:40:57.340Z,14.64
2022-09-24T18:46:33.757Z,14.70
2022-09-24T18:49:24.245Z,14.69
2022-09-24T18:52:13.544Z,14.62
2022-09-24T18:57:52.917Z,14.33
2022-09-24T19:00:51.211Z,14.33
2022-09-24T19:03:40.445Z,14.41
2022-09-24T19:06:28.776Z,14.42
2022-09-24T19:12:25.108Z,14.45
2022-09-24T19:18:00.238Z,14.49
2022-09-24T19:20:50.919Z,14.21
2022-09-24T19:23:56.179Z,14.23
2022-09-24T19:29:38.031Z,14.29
2022-09-24T19:35:18.281Z,14.37
2022-09-24T19:41:03.947Z,14.42
2022-09-24T19:46:40.873Z,14.39
2022-09-24T19:49:30.723Z,14.20
2022-09-24T19:52:20.614Z,14.16
2022-09-24T19:57:59.122Z,14.18
2022-09-24T20:04:06.315Z,14.19
2022-09-24T20:09:44.416Z,14.13
2022-09-24T20:12:40.827Z,14.08
2022-09-24T20:18:21.797Z,14.08
2022-09-24T20:24:06.317Z,14.11
2022-09-24T20:30:00.075Z,14.11
2022-09-24T20:35:42.663Z,13.97
2022-09-24T20:38:37.850Z,13.84
2022-09-24T20:50:37.953Z,13.75
2022-09-24T20:53:31.497Z,13.77
2022-09-24T20:56:20.807Z,13.75
2022-09-24T21:02:16.680Z,13.72
2022-09-24T21:08:05.752Z,13.62
2022-09-24T21:13:54.618Z,13.41
2022-09-24T21:19:41.787Z,13.30
2022-09-24T21:22:35.569Z,13.29
2022-09-24T21:25:53.514Z,13.15
2022-09-24T21:31:28.663Z,13.19
2022-09-24T21:34:36.084Z,13.19
2022-09-24T21:37:25.491Z,13.15
2022-09-24T21:40:14.712Z,13.06
2022-09-24T21:43:04.520Z,13.09
2022-09-24T21:46:03.931Z,13.12
2022-09-24T21:48:52.274Z,13.15
2022-09-24T21:54:26.928Z,13.11
2022-09-24T21:57:27.248Z,13.01
2022-09-24T22:00:24.279Z,13.01
2022-09-24T22:08:51.276Z,12.93
2022-09-24T22:14:26.924Z,12.94
2022-09-24T22:20:02.962Z,13.01
2022-09-24T22:25:40.498Z,13.02
2022-09-24T22:31:16.174Z,13.16
2022-09-24T22:36:52.493Z,13.15
2022-09-24T22:39:41.774Z,13.09
2022-09-24T22:45:14.954Z,13.22
2022-09-24T22:50:51.210Z,13.05
2022-09-24T22:53:40.446Z,13.04
2022-09-24T22:59:11.170Z,13.15
2022-09-24T23:01:59.652Z,13.07
2022-09-24T23:07:35.640Z,12.95
2022-09-24T23:13:05.428Z,13.11
2022-09-24T23:18:32.256Z,12.86
2022-09-24T23:21:22.303Z,12.81
2022-09-24T23:26:55.388Z,12.84
2022-09-24T23:32:31.464Z,12.59
2022-09-24T23:35:21.178Z,12.58
2022-09-24T23:40:57.209Z,12.35
2022-09-24T23:43:46.341Z,12.36
2022-09-24T23:49:21.107Z,12.57
2022-09-24T23:52:10.849Z,12.44
2022-09-24T23:54:58.995Z,12.54
